sensor_id;sensor_type;location;lat;lon;timestamp;P1;durP1;ratioP1;P2;durP2;ratioP2
69030;SDS011;56083;48.774;8.942;2022-10-31T10:18:15;13.23;;;4.38;;
69030;SDS011;56083;48.774;8.942;2022-10-31T10:26:37;8.30;;;3.47;;
69030;SDS011;56083;48.774;8.942;2022-10-31T10:39:25;20.48;;;3.72;;
69030;SDS011;56083;48.774;8.942;2022-10-31T10:42:12;10.63;;;3.35;;
69030;SDS011;56083;48.774;8.942;2022-10-31T10:44:58;15.50;;;3.67;;
69030;SDS011;56083;48.774;8.942;2022-10-31T10:47:51;10.38;;;3.45;;
69030;SDS011;56083;48.774;8.942;2022-10-31T10:50:25;15.80;;;3.40;;
69030;SDS011;56083;48.774;8.942;2022-10-31T10:53:01;15.02;;;3.40;;
69030;SDS011;56083;48.774;8.942;2022-10-31T10:58:03;13.00;;;2.95;;
69030;SDS011;56083;48.774;8.942;2022-10-31T11:02:59;16.40;;;3.80;;
69030;SDS011;56083;48.774;8.942;2022-10-31T11:08:22;11.73;;;3.97;;
69030;SDS011;56083;48.774;8.942;2022-10-31T11:10:59;16.65;;;3.63;;
69030;SDS011;56083;48.774;8.942;2022-10-31T11:13:41;15.18;;;4.10;;
69030;SDS011;56083;48.774;8.942;2022-10-31T11:18:41;14.20;;;3.67;;
69030;SDS011;56083;48.774;8.942;2022-10-31T11:21:25;11.93;;;4.18;;
69030;SDS011;56083;48.774;8.942;2022-10-31T11:26:39;15.55;;;3.88;;
69030;SDS011;56083;48.774;8.942;2022-10-31T11:29:11;12.90;;;3.97;;
69030;SDS011;56083;48.774;8.942;2022-10-31T11:31:50;12.05;;;4.03;;
69030;SDS011;56083;48.774;8.942;2022-10-31T11:34:28;14.30;;;4.25;;
69030;SDS011;56083;48.774;8.942;2022-10-31T11:37:12;11.30;;;3.67;;
69030;SDS011;56083;48.774;8.942;2022-10-31T11:39:43;9.13;;;3.42;;
69030;SDS011;56083;48.774;8.942;2022-10-31T11:42:17;13.55;;;4.05;;
69030;SDS011;56083;48.774;8.942;2022-10-31T11:44:48;14.13;;;4.50;;
69030;SDS011;56083;48.774;8.942;2022-10-31T11:47:16;18.42;;;5.00;;
69030;SDS011;56083;48.774;8.942;2022-10-31T11:49:45;16.35;;;4.72;;
69030;SDS011;56083;48.774;8.942;2022-10-31T11:52:18;11.35;;;4.53;;
69030;SDS011;56083;48.774;8.942;2022-10-31T11:54:55;12.63;;;5.40;;
69030;SDS011;56083;48.774;8.942;2022-10-31T11:57:28;19.90;;;5.00;;
69030;SDS011;56083;48.774;8.942;2022-10-31T12:02:48;15.93;;;4.88;;
69030;SDS011;56083;48.774;8.942;2022-10-31T12:05:18;15.95;;;5.22;;
69030;SDS011;56083;48.774;8.942;2022-10-31T12:07:48;13.60;;;5.20;;
69030;SDS011;56083;48.774;8.942;2022-10-31T12:10:14;12.10;;;4.75;;
69030;SDS011;56083;48.774;8.942;2022-10-31T12:24:07;15.60;;;4.82;;
69030;SDS011;56083;48.774;8.942;2022-10-31T12:45:54;17.75;;;5.25;;
69030;SDS011;56083;48.774;8.942;2022-10-31T12:54:00;16.75;;;5.30;;
69030;SDS011;56083;48.774;8.942;2022-10-31T13:01:49;21.05;;;6.43;;
69030;SDS011;56083;48.774;8.942;2022-10-31T13:04:22;14.23;;;5.88;;
69030;SDS011;56083;48.774;8.942;2022-10-31T13:07:12;38.35;;;9.45;;
69030;SDS011;56083;48.774;8.942;2022-10-31T13:09:45;47.33;;;12.65;;
69030;SDS011;56083;48.774;8.942;2022-10-31T13:12:34;29.40;;;10.00;;
69030;SDS011;56083;48.774;8.942;2022-10-31T13:15:05;20.27;;;7.93;;
69030;SDS011;56083;48.774;8.942;2022-10-31T13:17:45;33.75;;;12.43;;
69030;SDS011;56083;48.774;8.942;2022-10-31T13:23:03;38.47;;;12.55;;
69030;SDS011;56083;48.774;8.942;2022-10-31T13:25:51;40.42;;;11.82;;
69030;SDS011;56083;48.774;8.942;2022-10-31T13:31:09;35.65;;;13.95;;
69030;SDS011;56083;48.774;8.942;2022-10-31T13:33:49;22.70;;;8.55;;
69030;SDS011;56083;48.774;8.942;2022-10-31T13:36:36;15.13;;;5.10;;
69030;SDS011;56083;48.774;8.942;2022-10-31T13:41:51;21.48;;;5.63;;
69030;SDS011;56083;48.774;8.942;2022-10-31T13:44:24;15.05;;;5.00;;
69030;SDS011;56083;48.774;8.942;2022-10-31T13:46:56;15.93;;;6.20;;
69030;SDS011;56083;48.774;8.942;2022-10-31T13:54:35;12.63;;;4.32;;
69030;SDS011;56083;48.774;8.942;2022-10-31T13:57:06;16.40;;;4.40;;
69030;SDS011;56083;48.774;8.942;2022-10-31T13:59:45;16.10;;;5.25;;
69030;SDS011;56083;48.774;8.942;2022-10-31T14:02:23;17.23;;;5.68;;
69030;SDS011;56083;48.774;8.942;2022-10-31T14:05:40;15.55;;;5.43;;
69030;SDS011;56083;48.774;8.942;2022-10-31T14:07:51;20.85;;;5.50;;
69030;SDS011;56083;48.774;8.942;2022-10-31T14:13:15;17.48;;;5.78;;
69030;SDS011;56083;48.774;8.942;2022-10-31T14:15:42;13.55;;;4.68;;
69030;SDS011;56083;48.774;8.942;2022-10-31T14:18:28;17.20;;;5.70;;
69030;SDS011;56083;48.774;8.942;2022-10-31T14:20:57;19.95;;;5.72;;
69030;SDS011;56083;48.774;8.942;2022-10-31T14:26:07;14.57;;;5.82;;
69030;SDS011;56083;48.774;8.942;2022-10-31T14:28:41;17.25;;;5.90;;
69030;SDS011;56083;48.774;8.942;2022-10-31T14:33:51;18.38;;;5.38;;
69030;SDS011;56083;48.774;8.942;2022-10-31T14:36:18;13.65;;;4.93;;
69030;SDS011;56083;48.774;8.942;2022-10-31T14:39:39;24.95;;;5.82;;
69030;SDS011;56083;48.774;8.942;2022-10-31T14:42:22;14.27;;;5.40;;
69030;SDS011;56083;48.774;8.942;2022-10-31T14:53:19;19.08;;;6.25;;
69030;SDS011;56083;48.774;8.942;2022-10-31T14:55:49;20.25;;;6.57;;
69030;SDS011;56083;48.774;8.942;2022-10-31T14:58:22;16.92;;;6.50;;
69030;SDS011;56083;48.774;8.942;2022-10-31T15:01:17;23.20;;;7.15;;
69030;SDS011;56083;48.774;8.942;2022-10-31T15:03:44;24.38;;;7.47;;
69030;SDS011;56083;48.774;8.942;2022-10-31T15:06:13;18.92;;;7.55;;
69030;SDS011;56083;48.774;8.942;2022-10-31T15:08:45;20.58;;;7.38;;
69030;SDS011;56083;48.774;8.942;2022-10-31T15:11:19;16.60;;;7.32;;
69030;SDS011;56083;48.774;8.942;2022-10-31T15:13:53;29.88;;;7.18;;
69030;SDS011;56083;48.774;8.942;2022-10-31T15:16:24;17.88;;;8.00;;
69030;SDS011;56083;48.774;8.942;2022-10-31T15:18:56;23.15;;;8.30;;
69030;SDS011;56083;48.774;8.942;2022-10-31T15:21:28;22.45;;;8.07;;
69030;SDS011;56083;48.774;8.942;2022-10-31T15:23:54;22.20;;;9.23;;
69030;SDS011;56083;48.774;8.942;2022-10-31T15:26:22;25.13;;;9.07;;
69030;SDS011;56083;48.774;8.942;2022-10-31T15:28:57;21.35;;;8.07;;
69030;SDS011;56083;48.774;8.942;2022-10-31T15:31:24;32.90;;;7.78;;
69030;SDS011;56083;48.774;8.942;2022-10-31T15:33:50;23.65;;;7.63;;
69030;SDS011;56083;48.774;8.942;2022-10-31T15:38:51;23.90;;;7.78;;
69030;SDS011;56083;48.774;8.942;2022-10-31T15:41:24;23.08;;;7.63;;
69030;SDS011;56083;48.774;8.942;2022-10-31T15:43:56;16.85;;;6.75;;
69030;SDS011;56083;48.774;8.942;2022-10-31T15:46:52;17.77;;;6.85;;
69030;SDS011;56083;48.774;8.942;2022-10-31T15:49:42;21.15;;;8.05;;
69030;SDS011;56083;48.774;8.942;2022-10-31T15:52:25;20.50;;;8.43;;
69030;SDS011;56083;48.774;8.942;2022-10-31T15:54:59;21.73;;;7.75;;
69030;SDS011;56083;48.774;8.942;2022-10-31T15:57:30;24.40;;;8.38;;
69030;SDS011;56083;48.774;8.942;2022-10-31T15:59:57;21.48;;;8.02;;
69030;SDS011;56083;48.774;8.942;2022-10-31T16:02:24;17.75;;;7.68;;
69030;SDS011;56083;48.774;8.942;2022-10-31T16:04:58;21.73;;;8.02;;
69030;SDS011;56083;48.774;8.942;2022-10-31T16:07:26;18.67;;;7.68;;
69030;SDS011;56083;48.774;8.942;2022-10-31T16:12:35;27.95;;;8.00;;
69030;SDS011;56083;48.774;8.942;2022-10-31T16:15:12;17.63;;;6.95;;
69030;SDS011;56083;48.774;8.942;2022-10-31T16:17:40;18.65;;;7.68;;
69030;SDS011;56083;48.774;8.942;2022-10-31T16:20:16;23.20;;;7.20;;
69030;SDS011;56083;48.774;8.942;2022-10-31T16:22:47;22.40;;;8.73;;
69030;SDS011;56083;48.774;8.942;2022-10-31T16:25:16;33.45;;;8.75;;
69030;SDS011;56083;48.774;8.942;2022-10-31T16:27:48;22.48;;;8.43;;
69030;SDS011;56083;48.774;8.942;2022-10-31T16:33:04;24.58;;;9.45;;
69030;SDS011;56083;48.774;8.942;2022-10-31T16:35:44;23.80;;;9.65;;
69030;SDS011;56083;48.774;8.942;2022-10-31T16:38:10;23.45;;;9.73;;
69030;SDS011;56083;48.774;8.942;2022-10-31T16:40:37;22.50;;;9.45;;
69030;SDS011;56083;48.774;8.942;2022-10-31T16:43:03;33.35;;;10.25;;
69030;SDS011;56083;48.774;8.942;2022-10-31T16:45:29;34.88;;;10.48;;
69030;SDS011;56083;48.774;8.942;2022-10-31T16:48:06;34.40;;;12.55;;
69030;SDS011;56083;48.774;8.942;2022-10-31T16:50:35;27.92;;;10.98;;
69030;SDS011;56083;48.774;8.942;2022-10-31T16:53:02;22.55;;;10.23;;
69030;SDS011;56083;48.774;8.942;2022-10-31T16:55:29;27.08;;;11.60;;
69030;SDS011;56083;48.774;8.942;2022-10-31T16:57:56;28.42;;;11.73;;
69030;SDS011;56083;48.774;8.942;2022-10-31T17:00:23;29.75;;;13.40;;
69030;SDS011;56083;48.774;8.942;2022-10-31T17:02:50;28.90;;;12.23;;
69030;SDS011;56083;48.774;8.942;2022-10-31T17:05:19;34.58;;;13.45;;
69030;SDS011;56083;48.774;8.942;2022-10-31T17:07:47;26.80;;;12.57;;
69030;SDS011;56083;48.774;8.942;2022-10-31T17:10:14;36.13;;;13.20;;
69030;SDS011;56083;48.774;8.942;2022-10-31T17:12:44;30.60;;;14.10;;
69030;SDS011;56083;48.774;8.942;2022-10-31T17:15:25;34.00;;;12.55;;
69030;SDS011;56083;48.774;8.942;2022-10-31T17:17:54;25.90;;;12.30;;
69030;SDS011;56083;48.774;8.942;2022-10-31T17:20:27;36.65;;;13.32;;
69030;SDS011;56083;48.774;8.942;2022-10-31T17:25:21;31.73;;;12.70;;
69030;SDS011;56083;48.774;8.942;2022-10-31T17:27:48;27.30;;;12.18;;
69030;SDS011;56083;48.774;8.942;2022-10-31T17:30:14;31.58;;;11.98;;
69030;SDS011;56083;48.774;8.942;2022-10-31T17:32:42;36.72;;;13.70;;
69030;SDS011;56083;48.774;8.942;2022-10-31T17:35:09;36.58;;;16.85;;
69030;SDS011;56083;48.774;8.942;2022-10-31T17:37:35;41.42;;;17.20;;
69030;SDS011;56083;48.774;8.942;2022-10-31T17:40:01;27.25;;;12.93;;
69030;SDS011;56083;48.774;8.942;2022-10-31T17:42:27;34.97;;;11.02;;
69030;SDS011;56083;48.774;8.942;2022-10-31T17:44:53;25.17;;;10.07;;
69030;SDS011;56083;48.774;8.942;2022-10-31T17:47:19;23.63;;;9.93;;
69030;SDS011;56083;48.774;8.942;2022-10-31T17:49:45;26.35;;;9.80;;
69030;SDS011;56083;48.774;8.942;2022-10-31T17:52:10;21.70;;;9.98;;
69030;SDS011;56083;48.774;8.942;2022-10-31T17:54:36;30.05;;;11.10;;
69030;SDS011;56083;48.774;8.942;2022-10-31T17:57:02;29.40;;;12.05;;
69030;SDS011;56083;48.774;8.942;2022-10-31T17:59:27;22.25;;;11.02;;
69030;SDS011;56083;48.774;8.942;2022-10-31T18:01:54;21.50;;;10.15;;
69030;SDS011;56083;48.774;8.942;2022-10-31T18:04:20;22.40;;;9.68;;
69030;SDS011;56083;48.774;8.942;2022-10-31T18:06:46;20.60;;;10.52;;
69030;SDS011;56083;48.774;8.942;2022-10-31T18:09:15;25.17;;;10.93;;
69030;SDS011;56083;48.774;8.942;2022-10-31T18:11:41;34.50;;;15.27;;
69030;SDS011;56083;48.774;8.942;2022-10-31T18:14:07;56.72;;;26.35;;
69030;SDS011;56083;48.774;8.942;2022-10-31T18:16:34;34.38;;;16.83;;
69030;SDS011;56083;48.774;8.942;2022-10-31T18:19:00;34.17;;;15.25;;
69030;SDS011;56083;48.774;8.942;2022-10-31T18:21:27;35.22;;;15.25;;
69030;SDS011;56083;48.774;8.942;2022-10-31T18:23:59;32.67;;;14.30;;
69030;SDS011;56083;48.774;8.942;2022-10-31T18:26:26;22.38;;;11.52;;
69030;SDS011;56083;48.774;8.942;2022-10-31T18:28:52;24.48;;;10.80;;
69030;SDS011;56083;48.774;8.942;2022-10-31T18:31:18;26.40;;;12.15;;
69030;SDS011;56083;48.774;8.942;2022-10-31T18:33:44;27.88;;;12.52;;
69030;SDS011;56083;48.774;8.942;2022-10-31T18:36:10;29.52;;;12.48;;
69030;SDS011;56083;48.774;8.942;2022-10-31T18:38:37;32.75;;;13.77;;
69030;SDS011;56083;48.774;8.942;2022-10-31T18:41:05;35.88;;;17.13;;
69030;SDS011;56083;48.774;8.942;2022-10-31T18:43:31;29.90;;;14.88;;
69030;SDS011;56083;48.774;8.942;2022-10-31T18:46:04;26.33;;;12.40;;
69030;SDS011;56083;48.774;8.942;2022-10-31T18:48:32;23.80;;;11.68;;
69030;SDS011;56083;48.774;8.942;2022-10-31T18:51:02;31.48;;;12.60;;
69030;SDS011;56083;48.774;8.942;2022-10-31T18:53:29;37.90;;;14.95;;
69030;SDS011;56083;48.774;8.942;2022-10-31T18:55:54;35.85;;;16.00;;
69030;SDS011;56083;48.774;8.942;2022-10-31T18:58:20;35.15;;;17.50;;
69030;SDS011;56083;48.774;8.942;2022-10-31T19:00:46;35.45;;;17.00;;
69030;SDS011;56083;48.774;8.942;2022-10-31T19:03:14;31.27;;;16.40;;
69030;SDS011;56083;48.774;8.942;2022-10-31T19:05:40;41.80;;;14.32;;
69030;SDS011;56083;48.774;8.942;2022-10-31T19:08:08;27.38;;;12.57;;
69030;SDS011;56083;48.774;8.942;2022-10-31T19:10:38;33.08;;;13.35;;
69030;SDS011;56083;48.774;8.942;2022-10-31T19:13:04;40.65;;;17.20;;
69030;SDS011;56083;48.774;8.942;2022-10-31T19:15:32;34.60;;;14.70;;
69030;SDS011;56083;48.774;8.942;2022-10-31T19:17:59;39.00;;;13.27;;
69030;SDS011;56083;48.774;8.942;2022-10-31T19:20:24;28.10;;;11.80;;
69030;SDS011;56083;48.774;8.942;2022-10-31T19:22:50;23.92;;;11.82;;
69030;SDS011;56083;48.774;8.942;2022-10-31T19:25:16;30.52;;;11.13;;
69030;SDS011;56083;48.774;8.942;2022-10-31T19:27:42;25.80;;;11.27;;
69030;SDS011;56083;48.774;8.942;2022-10-31T19:30:08;28.85;;;10.68;;
69030;SDS011;56083;48.774;8.942;2022-10-31T19:32:34;22.90;;;11.10;;
69030;SDS011;56083;48.774;8.942;2022-10-31T19:35:00;29.55;;;12.45;;
69030;SDS011;56083;48.774;8.942;2022-10-31T19:37:26;26.10;;;11.63;;
69030;SDS011;56083;48.774;8.942;2022-10-31T19:39:52;25.83;;;11.45;;
69030;SDS011;56083;48.774;8.942;2022-10-31T19:42:18;23.35;;;10.88;;
69030;SDS011;56083;48.774;8.942;2022-10-31T19:44:44;26.45;;;11.38;;
69030;SDS011;56083;48.774;8.942;2022-10-31T19:47:09;26.58;;;12.18;;
69030;SDS011;56083;48.774;8.942;2022-10-31T19:49:35;26.25;;;11.48;;
69030;SDS011;56083;48.774;8.942;2022-10-31T19:52:01;29.25;;;10.63;;
69030;SDS011;56083;48.774;8.942;2022-10-31T19:54:26;25.13;;;10.75;;
69030;SDS011;56083;48.774;8.942;2022-10-31T19:56:52;26.05;;;12.02;;
69030;SDS011;56083;48.774;8.942;2022-10-31T19:59:17;29.70;;;11.60;;
69030;SDS011;56083;48.774;8.942;2022-10-31T20:01:43;22.02;;;12.18;;
69030;SDS011;56083;48.774;8.942;2022-10-31T20:04:09;39.95;;;12.23;;
69030;SDS011;56083;48.774;8.942;2022-10-31T20:06:36;31.23;;;12.98;;
69030;SDS011;56083;48.774;8.942;2022-10-31T20:09:04;30.15;;;13.23;;
69030;SDS011;56083;48.774;8.942;2022-10-31T20:11:35;26.95;;;13.20;;
69030;SDS011;56083;48.774;8.942;2022-10-31T20:14:01;30.50;;;14.13;;
69030;SDS011;56083;48.774;8.942;2022-10-31T20:16:28;36.05;;;15.07;;
69030;SDS011;56083;48.774;8.942;2022-10-31T20:18:54;31.38;;;13.60;;
69030;SDS011;56083;48.774;8.942;2022-10-31T20:21:21;27.10;;;11.90;;
69030;SDS011;56083;48.774;8.942;2022-10-31T20:23:48;25.30;;;11.50;;
69030;SDS011;56083;48.774;8.942;2022-10-31T20:26:19;27.67;;;11.85;;
69030;SDS011;56083;48.774;8.942;2022-10-31T20:28:44;30.60;;;11.65;;
69030;SDS011;56083;48.774;8.942;2022-10-31T20:31:13;24.95;;;10.68;;
69030;SDS011;56083;48.774;8.942;2022-10-31T20:33:40;19.13;;;10.95;;
69030;SDS011;56083;48.774;8.942;2022-10-31T20:36:06;26.55;;;10.90;;
69030;SDS011;56083;48.774;8.942;2022-10-31T20:38:33;24.13;;;11.85;;
69030;SDS011;56083;48.774;8.942;2022-10-31T20:41:01;23.55;;;11.25;;
69030;SDS011;56083;48.774;8.942;2022-10-31T20:43:28;23.13;;;12.40;;
69030;SDS011;56083;48.774;8.942;2022-10-31T20:46:13;24.88;;;12.00;;
69030;SDS011;56083;48.774;8.942;2022-10-31T20:48:44;21.80;;;11.00;;
69030;SDS011;56083;48.774;8.942;2022-10-31T20:51:10;28.88;;;11.63;;
69030;SDS011;56083;48.774;8.942;2022-10-31T20:53:37;34.47;;;13.90;;
69030;SDS011;56083;48.774;8.942;2022-10-31T20:56:04;28.35;;;13.07;;
69030;SDS011;56083;48.774;8.942;2022-10-31T20:58:32;26.80;;;14.63;;
69030;SDS011;56083;48.774;8.942;2022-10-31T21:00:59;32.50;;;13.88;;
69030;SDS011;56083;48.774;8.942;2022-10-31T21:03:25;35.28;;;13.93;;
69030;SDS011;56083;48.774;8.942;2022-10-31T21:08:24;28.63;;;13.20;;
69030;SDS011;56083;48.774;8.942;2022-10-31T21:10:51;31.60;;;13.57;;
69030;SDS011;56083;48.774;8.942;2022-10-31T21:13:17;27.23;;;13.40;;
69030;SDS011;56083;48.774;8.942;2022-10-31T21:15:43;26.90;;;12.77;;
69030;SDS011;56083;48.774;8.942;2022-10-31T21:18:09;28.10;;;12.75;;
69030;SDS011;56083;48.774;8.942;2022-10-31T21:20:42;31.55;;;12.93;;
69030;SDS011;56083;48.774;8.942;2022-10-31T21:23:11;30.88;;;14.48;;
69030;SDS011;56083;48.774;8.942;2022-10-31T21:25:40;30.13;;;13.68;;
69030;SDS011;56083;48.774;8.942;2022-10-31T21:28:07;34.15;;;13.77;;
69030;SDS011;56083;48.774;8.942;2022-10-31T21:30:38;27.73;;;13.32;;
69030;SDS011;56083;48.774;8.942;2022-10-31T21:33:04;30.88;;;14.68;;
69030;SDS011;56083;48.774;8.942;2022-10-31T21:35:30;31.83;;;14.07;;
69030;SDS011;56083;48.774;8.942;2022-10-31T21:37:56;28.08;;;14.32;;
69030;SDS011;56083;48.774;8.942;2022-10-31T21:40:22;30.30;;;14.23;;
69030;SDS011;56083;48.774;8.942;2022-10-31T21:42:48;27.77;;;14.60;;
69030;SDS011;56083;48.774;8.942;2022-10-31T21:45:14;33.40;;;13.98;;
69030;SDS011;56083;48.774;8.942;2022-10-31T21:47:40;32.92;;;14.15;;
69030;SDS011;56083;48.774;8.942;2022-10-31T21:50:06;28.05;;;14.32;;
69030;SDS011;56083;48.774;8.942;2022-10-31T21:52:32;25.20;;;14.27;;
69030;SDS011;56083;48.774;8.942;2022-10-31T21:54:57;34.05;;;14.20;;
69030;SDS011;56083;48.774;8.942;2022-10-31T21:57:23;38.47;;;15.20;;
69030;SDS011;56083;48.774;8.942;2022-10-31T21:59:49;34.25;;;15.90;;
69030;SDS011;56083;48.774;8.942;2022-10-31T22:02:14;28.60;;;14.88;;
69030;SDS011;56083;48.774;8.942;2022-10-31T22:04:40;30.65;;;14.45;;
69030;SDS011;56083;48.774;8.942;2022-10-31T22:07:06;25.55;;;13.63;;
69030;SDS011;56083;48.774;8.942;2022-10-31T22:09:32;29.77;;;14.93;;
69030;SDS011;56083;48.774;8.942;2022-10-31T22:11:57;27.00;;;13.48;;
69030;SDS011;56083;48.774;8.942;2022-10-31T22:14:25;26.88;;;13.40;;
69030;SDS011;56083;48.774;8.942;2022-10-31T22:16:51;29.38;;;12.88;;
69030;SDS011;56083;48.774;8.942;2022-10-31T22:19:16;33.60;;;14.05;;
69030;SDS011;56083;48.774;8.942;2022-10-31T22:21:43;28.70;;;14.57;;
69030;SDS011;56083;48.774;8.942;2022-10-31T22:24:13;29.50;;;13.40;;
69030;SDS011;56083;48.774;8.942;2022-10-31T22:26:39;33.72;;;14.05;;
69030;SDS011;56083;48.774;8.942;2022-10-31T22:29:06;34.75;;;13.75;;
69030;SDS011;56083;48.774;8.942;2022-10-31T22:31:36;26.65;;;13.65;;
69030;SDS011;56083;48.774;8.942;2022-10-31T22:34:04;33.10;;;14.25;;
69030;SDS011;56083;48.774;8.942;2022-10-31T22:36:30;35.88;;;15.43;;
69030;SDS011;56083;48.774;8.942;2022-10-31T22:38:56;29.40;;;14.98;;
69030;SDS011;56083;48.774;8.942;2022-10-31T22:41:26;33.42;;;14.57;;
69030;SDS011;56083;48.774;8.942;2022-10-31T22:43:54;31.83;;;14.07;;
69030;SDS011;56083;48.774;8.942;2022-10-31T22:46:21;26.83;;;14.07;;
69030;SDS011;56083;48.774;8.942;2022-10-31T22:48:52;28.20;;;13.20;;
69030;SDS011;56083;48.774;8.942;2022-10-31T22:51:23;31.83;;;13.52;;
69030;SDS011;56083;48.774;8.942;2022-10-31T22:53:50;27.67;;;14.20;;
69030;SDS011;56083;48.774;8.942;2022-10-31T22:56:18;28.48;;;14.27;;
69030;SDS011;56083;48.774;8.942;2022-10-31T22:58:45;31.40;;;15.50;;
69030;SDS011;56083;48.774;8.942;2022-10-31T23:01:12;37.97;;;15.48;;
69030;SDS011;56083;48.774;8.942;2022-10-31T23:03:39;30.58;;;15.77;;
69030;SDS011;56083;48.774;8.942;2022-10-31T23:06:06;30.60;;;15.85;;
69030;SDS011;56083;48.774;8.942;2022-10-31T23:08:34;31.15;;;15.75;;
69030;SDS011;56083;48.774;8.942;2022-10-31T23:11:01;38.22;;;16.63;;
69030;SDS011;56083;48.774;8.942;2022-10-31T23:13:36;36.45;;;16.50;;
69030;SDS011;56083;48.774;8.942;2022-10-31T23:16:20;33.10;;;16.70;;
69030;SDS011;56083;48.774;8.942;2022-10-31T23:18:46;28.15;;;15.35;;
69030;SDS011;56083;48.774;8.942;2022-10-31T23:21:11;28.65;;;16.65;;
69030;SDS011;56083;48.774;8.942;2022-10-31T23:23:56;36.60;;;15.98;;
69030;SDS011;56083;48.774;8.942;2022-10-31T23:26:22;33.38;;;16.02;;
69030;SDS011;56083;48.774;8.942;2022-10-31T23:29:08;36.70;;;16.15;;
69030;SDS011;56083;48.774;8.942;2022-10-31T23:31:34;32.55;;;16.65;;
69030;SDS011;56083;48.774;8.942;2022-10-31T23:33:59;32.22;;;15.80;;
69030;SDS011;56083;48.774;8.942;2022-10-31T23:36:25;30.77;;;15.93;;
69030;SDS011;56083;48.774;8.942;2022-10-31T23:38:51;27.17;;;16.33;;
69030;SDS011;56083;48.774;8.942;2022-10-31T23:41:16;31.17;;;15.10;;
69030;SDS011;56083;48.774;8.942;2022-10-31T23:43:42;26.48;;;14.48;;
69030;SDS011;56083;48.774;8.942;2022-10-31T23:46:08;32.08;;;15.15;;
69030;SDS011;56083;48.774;8.942;2022-10-31T23:48:33;30.70;;;15.10;;
69030;SDS011;56083;48.774;8.942;2022-10-31T23:50:59;35.95;;;15.18;;
69030;SDS011;56083;48.774;8.942;2022-10-31T23:53:24;29.95;;;14.55;;
69030;SDS011;56083;48.774;8.942;2022-10-31T23:55:53;27.13;;;14.73;;
69030;SDS011;56083;48.774;8.942;2022-10-31T23:58:19;28.42;;;14.93;;
